DABB/AAE METAR and TAF weather

Enter ICAO airport designator
Station Type Date Time Source
DABB METAR 2019/06/16 06:30 UTC NOAA

DABB 160630Z 23003KT 190V260 8000 FEW020 21/19 Q1017


Station Type Date Time Source
DABB Decoded METAR 2019/06/16 06:30 UTC NOAA

Annaba, Algeria (DABB) 36-50N 007-49E 4M
Jun 16, 2019 - 02:30 AM EDT / 2019.06.16 0630 UTC
Wind: from the SW (230 degrees) at 3 MPH (3 KT) (direction variable):0
Visibility: 4 mile(s):0
Sky conditions: mostly clear
Temperature: 69 F (21 C)
Dew Point: 66 F (19 C)
Relative Humidity: 88%
Pressure (altimeter): 30.03 in. Hg (1017 hPa)
ob: DABB 160630Z 23003KT 190V260 8000 FEW020 21/19 Q1017
cycle: 6

Station Type Date Time Source
DABB TAF 2019/06/16 06:33 UTC NOAA

TAF DABB 160500Z 1606/1706 28008KT 9999 FEW030 PROB40
TEMPO 1600/1609 2000 BR BKN010 PROB30
TEMPO 1606/1608 0400 FG BKN004
BECMG 1609/1611 02011KT
TEMPO 1613/1624 FEW023TCU PROB40
TEMPO 1616/1703 5000 -TSRA FEW020CB
BECMG 1622/1624 28008KT

Example: see airport list